createdAt,value
2017-12-19T00:00:15.417Z,964.92
2017-12-19T00:01:15.418Z,964.89
2017-12-19T00:02:15.421Z,964.91
2017-12-19T00:03:15.424Z,964.92
2017-12-19T00:04:15.429Z,964.88
2017-12-19T00:05:15.428Z,964.89
2017-12-19T00:06:15.432Z,964.92
2017-12-19T00:07:15.434Z,964.98
2017-12-19T00:08:15.436Z,965.03
2017-12-19T00:09:15.437Z,965.07
2017-12-19T00:10:15.438Z,965.05
2017-12-19T00:11:15.448Z,965.05
2017-12-19T00:12:15.445Z,965.06
2017-12-19T00:13:15.447Z,965.07
2017-12-19T00:14:15.454Z,965.11
2017-12-19T00:15:15.451Z,965.11
2017-12-19T00:16:15.454Z,965.11
2017-12-19T00:17:15.456Z,965.18
2017-12-19T00:18:15.459Z,965.14
2017-12-19T00:19:15.461Z,965.18
2017-12-19T00:20:15.464Z,965.17
2017-12-19T00:21:15.467Z,965.19
2017-12-19T00:22:15.468Z,965.18
2017-12-19T00:23:15.471Z,965.19
2017-12-19T00:24:15.474Z,965.18
2017-12-19T00:25:15.475Z,965.21
2017-12-19T00:26:15.479Z,965.23
2017-12-19T00:27:15.481Z,965.22
2017-12-19T00:28:15.483Z,965.28
2017-12-19T00:29:15.485Z,965.30
2017-12-19T00:30:15.487Z,965.35
2017-12-19T00:31:15.490Z,965.35
2017-12-19T00:32:15.493Z,965.37
2017-12-19T00:33:15.494Z,965.40
2017-12-19T00:34:15.500Z,965.37
2017-12-19T00:35:15.501Z,965.39
2017-12-19T00:36:15.502Z,965.40
2017-12-19T00:37:15.503Z,965.42
2017-12-19T00:38:15.507Z,965.44
2017-12-19T00:39:15.508Z,965.43
2017-12-19T00:40:15.509Z,965.44
2017-12-19T00:41:15.514Z,965.43
2017-12-19T00:42:15.516Z,965.39
2017-12-19T00:43:15.519Z,965.37
2017-12-19T00:44:15.521Z,965.37
2017-12-19T00:45:15.523Z,965.39
2017-12-19T00:46:15.525Z,965.37
2017-12-19T00:47:15.529Z,965.30
2017-12-19T00:48:15.530Z,965.30
2017-12-19T00:49:15.532Z,965.23
2017-12-19T00:50:15.536Z,965.24
2017-12-19T00:51:15.536Z,965.21
2017-12-19T00:52:15.539Z,965.20
2017-12-19T00:53:15.541Z,965.21
2017-12-19T00:54:15.546Z,965.18
2017-12-19T00:55:15.547Z,965.16
2017-12-19T00:56:15.548Z,965.08
2017-12-19T00:57:15.551Z,965.11
2017-12-19T00:58:15.563Z,965.10
2017-12-19T00:59:15.562Z,965.12
2017-12-19T01:00:15.563Z,965.17
2017-12-19T01:01:15.565Z,965.17
2017-12-19T01:02:15.567Z,965.20
2017-12-19T01:03:15.567Z,965.20
2017-12-19T01:04:15.568Z,965.23
2017-12-19T01:05:15.569Z,965.18
2017-12-19T01:06:15.571Z,965.23
2017-12-19T01:07:15.597Z,965.25
2017-12-19T01:08:15.583Z,965.30
2017-12-19T01:09:15.583Z,965.30
2017-12-19T01:10:15.592Z,965.33
2017-12-19T01:11:15.584Z,965.40
2017-12-19T01:12:15.589Z,965.39
2017-12-19T01:13:15.588Z,965.40
2017-12-19T01:14:15.591Z,965.45
2017-12-19T01:15:15.593Z,965.46
2017-12-19T01:16:15.596Z,965.50
2017-12-19T01:17:15.598Z,965.53
2017-12-19T01:18:15.606Z,965.54
2017-12-19T01:19:15.606Z,965.60
2017-12-19T01:20:15.606Z,965.60
2017-12-19T01:21:15.608Z,965.68
2017-12-19T01:22:15.611Z,965.70
2017-12-19T01:23:15.612Z,965.67
2017-12-19T01:24:15.614Z,965.70
2017-12-19T01:25:15.616Z,965.68
2017-12-19T01:26:15.617Z,965.63
2017-12-19T01:27:15.621Z,965.64
2017-12-19T01:28:15.623Z,965.66
2017-12-19T01:29:15.624Z,965.63
2017-12-19T01:30:15.627Z,965.64
2017-12-19T01:31:15.646Z,965.61
2017-12-19T01:32:15.633Z,965.60
2017-12-19T01:33:15.634Z,965.62
2017-12-19T01:34:15.639Z,965.63
2017-12-19T01:35:15.639Z,965.63
2017-12-19T01:36:15.649Z,965.62
2017-12-19T01:37:15.649Z,965.62
2017-12-19T01:38:15.647Z,965.65
2017-12-19T01:39:15.648Z,965.67
2017-12-19T01:40:15.650Z,965.68
2017-12-19T01:41:15.653Z,965.64
2017-12-19T01:42:15.655Z,965.73
2017-12-19T01:43:15.657Z,965.65
2017-12-19T01:44:15.661Z,965.64
2017-12-19T01:45:15.664Z,965.63
2017-12-19T01:46:15.665Z,965.58
2017-12-19T01:47:15.667Z,965.56
2017-12-19T01:48:15.670Z,965.59
2017-12-19T01:49:15.670Z,965.60
2017-12-19T01:50:15.673Z,965.60
2017-12-19T01:51:15.676Z,965.56
2017-12-19T01:52:15.689Z,965.58
2017-12-19T01:53:15.690Z,965.58
2017-12-19T01:54:15.690Z,965.66
2017-12-19T01:55:15.689Z,965.67
2017-12-19T01:56:15.690Z,965.68
2017-12-19T01:57:15.694Z,965.68
2017-12-19T01:58:15.692Z,965.67
2017-12-19T01:59:15.696Z,965.63
2017-12-19T02:00:15.698Z,965.66
2017-12-19T02:01:15.697Z,965.66
2017-12-19T02:02:15.702Z,965.66
2017-12-19T02:03:15.704Z,965.62
2017-12-19T02:04:15.707Z,965.63
2017-12-19T02:05:15.708Z,965.60
2017-12-19T02:06:15.710Z,965.63
2017-12-19T02:07:15.714Z,965.61
2017-12-19T02:08:15.730Z,965.66
2017-12-19T02:09:15.717Z,965.66
2017-12-19T02:10:15.719Z,965.76
2017-12-19T02:11:15.723Z,965.76
2017-12-19T02:12:15.725Z,965.76
2017-12-19T02:13:15.727Z,965.74
2017-12-19T02:14:15.730Z,965.74
2017-12-19T02:15:15.732Z,965.79
2017-12-19T02:16:15.733Z,965.74
2017-12-19T02:17:15.736Z,965.71
2017-12-19T02:18:15.739Z,965.75
2017-12-19T02:19:15.740Z,965.70
2017-12-19T02:20:15.744Z,965.71
2017-12-19T02:21:15.745Z,965.72
2017-12-19T02:22:15.752Z,965.69
2017-12-19T02:23:15.749Z,965.69
2017-12-19T02:24:15.756Z,965.72
2017-12-19T02:25:15.754Z,965.69
2017-12-19T02:26:15.756Z,965.74
2017-12-19T02:27:15.758Z,965.67
2017-12-19T02:28:15.761Z,965.70
2017-12-19T02:29:15.763Z,965.73
2017-12-19T02:30:15.766Z,965.64
2017-12-19T02:31:15.769Z,965.64
2017-12-19T02:32:15.771Z,965.56
2017-12-19T02:33:15.777Z,965.58
2017-12-19T02:34:15.774Z,965.64
2017-12-19T02:35:15.777Z,965.66
2017-12-19T02:36:15.780Z,965.70
2017-12-19T02:37:15.781Z,965.77
2017-12-19T02:38:15.785Z,965.79
2017-12-19T02:39:15.784Z,965.78
2017-12-19T02:40:15.788Z,965.83
2017-12-19T02:41:15.790Z,965.89
2017-12-19T02:42:15.793Z,965.91
2017-12-19T02:43:15.800Z,965.96
2017-12-19T02:44:15.799Z,965.97
2017-12-19T02:45:15.814Z,966.03
2017-12-19T02:46:15.802Z,966.04
2017-12-19T02:47:15.805Z,966.08
2017-12-19T02:48:15.810Z,966.08
2017-12-19T02:49:15.809Z,966.14
2017-12-19T02:50:15.810Z,966.15
2017-12-19T02:51:15.813Z,966.14
2017-12-19T02:52:15.817Z,966.15
2017-12-19T02:53:15.817Z,966.15
2017-12-19T02:54:15.820Z,966.14
2017-12-19T02:55:15.823Z,966.14
2017-12-19T02:56:15.824Z,966.14
2017-12-19T02:57:15.827Z,966.13
2017-12-19T02:58:15.829Z,966.17
2017-12-19T02:59:15.832Z,966.10
2017-12-19T03:00:15.833Z,966.07
2017-12-19T03:01:15.835Z,966.07
2017-12-19T03:02:15.848Z,966.04
2017-12-19T03:03:15.841Z,966.04
2017-12-19T03:04:15.844Z,966.03
2017-12-19T03:05:15.846Z,966.07
2017-12-19T03:06:15.848Z,966.07
2017-12-19T03:07:15.864Z,966.10
2017-12-19T03:08:15.855Z,966.10
2017-12-19T03:09:15.855Z,966.08
2017-12-19T03:10:15.858Z,966.08
2017-12-19T03:11:15.859Z,966.09
2017-12-19T03:12:15.863Z,966.09
2017-12-19T03:13:15.864Z,966.11
2017-12-19T03:14:15.866Z,966.15
2017-12-19T03:15:15.877Z,966.10
2017-12-19T03:16:15.871Z,966.06
2017-12-19T03:17:15.874Z,966.08
2017-12-19T03:18:15.877Z,966.09
2017-12-19T03:19:15.879Z,966.06
2017-12-19T03:20:15.880Z,966.06
2017-12-19T03:21:15.883Z,966.05
2017-12-19T03:22:15.885Z,966.10
2017-12-19T03:23:15.888Z,966.13
2017-12-19T03:24:15.890Z,966.13
2017-12-19T03:25:15.892Z,966.18
2017-12-19T03:26:15.894Z,966.19
2017-12-19T03:27:15.897Z,966.23
2017-12-19T03:28:15.899Z,966.23
2017-12-19T03:29:15.900Z,966.22
2017-12-19T03:30:15.915Z,966.24
2017-12-19T03:31:15.906Z,966.23
2017-12-19T03:32:15.908Z,966.22
2017-12-19T03:33:15.909Z,966.30
2017-12-19T03:34:15.913Z,966.26
2017-12-19T03:35:15.914Z,966.25
2017-12-19T03:36:15.923Z,966.16
2017-12-19T03:37:15.919Z,966.13
2017-12-19T03:38:15.921Z,966.06
2017-12-19T03:39:15.923Z,966.01
2017-12-19T03:40:15.927Z,965.98
2017-12-19T03:41:15.926Z,965.93
2017-12-19T03:42:15.933Z,965.90
2017-12-19T03:43:15.938Z,965.87
2017-12-19T03:44:15.946Z,965.94
2017-12-19T03:45:15.937Z,966.07
2017-12-19T03:46:15.938Z,966.08
2017-12-19T03:47:15.943Z,966.17
2017-12-19T03:48:15.944Z,966.15
2017-12-19T03:49:15.946Z,966.14
2017-12-19T03:50:15.947Z,966.20
2017-12-19T03:51:15.951Z,966.25
2017-12-19T03:52:15.954Z,966.29
2017-12-19T03:53:15.965Z,966.33
2017-12-19T03:54:15.957Z,966.33
2017-12-19T03:55:15.961Z,966.41
2017-12-19T03:56:15.961Z,966.45
2017-12-19T03:57:15.964Z,966.48
2017-12-19T03:58:15.967Z,966.50
2017-12-19T03:59:15.968Z,966.51
2017-12-19T04:00:15.970Z,966.52
2017-12-19T04:01:15.972Z,966.54
2017-12-19T04:02:15.975Z,966.55
2017-12-19T04:03:15.977Z,966.52
2017-12-19T04:04:15.979Z,966.54
2017-12-19T04:05:15.985Z,966.54
2017-12-19T04:06:15.984Z,966.47
2017-12-19T04:07:15.985Z,966.41
2017-12-19T04:08:15.990Z,966.31
2017-12-19T04:09:15.990Z,966.34
2017-12-19T04:10:15.991Z,966.35
2017-12-19T04:11:15.994Z,966.31
2017-12-19T04:12:15.997Z,966.28
2017-12-19T04:13:15.999Z,966.27
2017-12-19T04:14:16.001Z,966.30
2017-12-19T04:15:16.010Z,966.29
2017-12-19T04:16:16.005Z,966.33
2017-12-19T04:17:16.008Z,966.29
2017-12-19T04:18:16.010Z,966.31
2017-12-19T04:19:16.012Z,966.32
2017-12-19T04:20:16.015Z,966.32
2017-12-19T04:21:16.018Z,966.28
2017-12-19T04:22:16.020Z,966.37
2017-12-19T04:23:16.021Z,966.42
2017-12-19T04:24:16.024Z,966.47
2017-12-19T04:25:16.026Z,966.52
2017-12-19T04:26:16.032Z,966.45
2017-12-19T04:27:16.030Z,966.44
2017-12-19T04:28:16.034Z,966.45
2017-12-19T04:29:16.035Z,966.51
2017-12-19T04:30:16.038Z,966.52
2017-12-19T04:31:16.047Z,966.55
2017-12-19T04:32:16.044Z,966.53
2017-12-19T04:33:16.044Z,966.58
2017-12-19T04:34:16.047Z,966.61
2017-12-19T04:35:16.049Z,966.68
2017-12-19T04:36:16.053Z,966.73
2017-12-19T04:37:16.054Z,966.81
2017-12-19T04:38:16.057Z,966.83
2017-12-19T04:39:16.066Z,966.79
2017-12-19T04:40:16.062Z,966.77
2017-12-19T04:41:16.063Z,966.81
2017-12-19T04:42:16.067Z,966.81
2017-12-19T04:43:16.069Z,966.81
2017-12-19T04:44:16.071Z,966.82
2017-12-19T04:45:16.074Z,966.81
2017-12-19T04:46:16.076Z,966.85
2017-12-19T04:47:16.079Z,966.86
2017-12-19T04:48:16.081Z,966.86
2017-12-19T04:49:16.083Z,966.85
2017-12-19T04:50:16.086Z,966.87
2017-12-19T04:51:16.090Z,966.91
2017-12-19T04:52:16.090Z,966.96
2017-12-19T04:53:16.094Z,966.96
2017-12-19T04:54:16.096Z,967.01
2017-12-19T04:55:16.098Z,966.96
2017-12-19T04:56:16.101Z,966.91
2017-12-19T04:57:16.103Z,966.87
2017-12-19T04:58:16.104Z,966.91
2017-12-19T04:59:16.107Z,966.89
2017-12-19T05:00:16.112Z,966.93
2017-12-19T05:01:16.116Z,966.91
2017-12-19T05:02:16.115Z,966.95
2017-12-19T05:03:16.118Z,967.02
2017-12-19T05:04:16.120Z,967.06
2017-12-19T05:05:16.121Z,966.92
2017-12-19T05:06:16.138Z,966.48
2017-12-19T05:07:16.127Z,966.72
2017-12-19T05:08:16.136Z,966.75
2017-12-19T05:09:16.139Z,966.71
2017-12-19T05:10:16.140Z,966.71
2017-12-19T05:11:16.141Z,966.76
2017-12-19T05:12:16.138Z,966.80
2017-12-19T05:13:16.139Z,966.83
2017-12-19T05:14:16.138Z,966.89
2017-12-19T05:15:16.143Z,966.94
2017-12-19T05:16:16.143Z,966.99
2017-12-19T05:17:16.148Z,966.97
2017-12-19T05:18:16.144Z,966.95
2017-12-19T05:19:16.148Z,967.03
2017-12-19T05:20:16.153Z,966.99
2017-12-19T05:21:16.151Z,967.02
2017-12-19T05:22:16.151Z,967.01
2017-12-19T05:23:16.209Z,966.99
2017-12-19T05:24:16.158Z,967.00
2017-12-19T05:25:16.154Z,967.04
2017-12-19T05:26:16.157Z,967.02
2017-12-19T05:27:16.160Z,966.98
2017-12-19T05:28:16.167Z,967.00
2017-12-19T05:29:16.162Z,966.90
2017-12-19T05:30:16.170Z,966.88
2017-12-19T05:31:16.167Z,966.92
2017-12-19T05:32:16.168Z,966.94
2017-12-19T05:33:16.168Z,966.98
2017-12-19T05:34:16.170Z,966.97
2017-12-19T05:35:16.174Z,966.97
2017-12-19T05:36:16.176Z,967.02
2017-12-19T05:37:16.176Z,967.05
2017-12-19T05:38:16.178Z,967.13
2017-12-19T05:39:16.180Z,967.10
2017-12-19T05:40:16.184Z,967.16
2017-12-19T05:41:16.183Z,967.25
2017-12-19T05:42:16.187Z,967.32
2017-12-19T05:43:16.188Z,967.35
2017-12-19T05:44:16.190Z,967.36
2017-12-19T05:45:16.193Z,967.33
2017-12-19T05:46:16.193Z,967.32
2017-12-19T05:47:16.195Z,967.32
2017-12-19T05:48:16.199Z,967.30
2017-12-19T05:49:16.199Z,967.27
2017-12-19T05:50:16.201Z,967.24
2017-12-19T05:51:16.213Z,967.24
2017-12-19T05:52:16.212Z,967.26
2017-12-19T05:53:16.212Z,967.23
2017-12-19T05:54:16.212Z,967.18
2017-12-19T05:55:16.212Z,967.18
2017-12-19T05:56:16.218Z,967.13
2017-12-19T05:57:16.217Z,967.14
2017-12-19T05:58:16.220Z,967.10
2017-12-19T05:59:16.221Z,967.11
2017-12-19T06:00:16.229Z,967.14
2017-12-19T06:01:16.226Z,967.25
2017-12-19T06:02:16.228Z,967.23
2017-12-19T06:03:16.231Z,967.27
2017-12-19T06:04:16.247Z,967.28
2017-12-19T06:05:16.237Z,967.26
2017-12-19T06:06:16.237Z,967.22
2017-12-19T06:07:16.239Z,967.28
2017-12-19T06:08:16.242Z,967.27
2017-12-19T06:09:16.244Z,967.29
2017-12-19T06:10:16.246Z,967.35
2017-12-19T06:11:16.252Z,967.39
2017-12-19T06:12:16.250Z,967.39
2017-12-19T06:13:16.253Z,967.43
2017-12-19T06:14:16.254Z,967.45
2017-12-19T06:15:16.257Z,967.51
2017-12-19T06:16:16.264Z,967.51
2017-12-19T06:17:16.262Z,967.55
2017-12-19T06:18:16.265Z,967.56
2017-12-19T06:19:16.269Z,967.57
2017-12-19T06:20:16.270Z,967.46
2017-12-19T06:21:16.271Z,967.38
2017-12-19T06:22:16.274Z,967.34
2017-12-19T06:23:16.277Z,967.31
2017-12-19T06:24:16.282Z,967.34
2017-12-19T06:25:16.281Z,967.39
2017-12-19T06:26:16.284Z,967.42
2017-12-19T06:27:16.293Z,967.52
2017-12-19T06:28:16.295Z,967.61
2017-12-19T06:29:16.296Z,967.70
2017-12-19T06:30:16.296Z,967.67
2017-12-19T06:31:16.295Z,967.60
2017-12-19T06:32:16.298Z,967.58
2017-12-19T06:33:16.299Z,967.53
2017-12-19T06:34:16.302Z,967.49
2017-12-19T06:35:16.317Z,967.46
2017-12-19T06:36:16.309Z,967.48
2017-12-19T06:37:16.309Z,967.51
2017-12-19T06:38:16.311Z,967.57
2017-12-19T06:39:16.314Z,967.56
2017-12-19T06:40:16.323Z,967.63
2017-12-19T06:41:16.316Z,967.65
2017-12-19T06:42:16.322Z,967.78
2017-12-19T06:43:16.324Z,967.80
2017-12-19T06:44:16.327Z,967.83
2017-12-19T06:45:16.328Z,967.85
2017-12-19T06:46:16.337Z,967.92
2017-12-19T06:47:16.339Z,967.91
2017-12-19T06:48:16.336Z,967.94
2017-12-19T06:49:16.337Z,967.95
2017-12-19T06:50:16.340Z,967.97
2017-12-19T06:51:16.345Z,967.98
2017-12-19T06:52:16.346Z,967.98
2017-12-19T06:53:16.387Z,968.03
2017-12-19T06:54:16.351Z,968.02
2017-12-19T06:55:16.354Z,968.07
2017-12-19T06:56:16.355Z,968.05
2017-12-19T06:57:16.357Z,968.07
2017-12-19T06:58:16.362Z,968.06
2017-12-19T06:59:16.361Z,968.13
2017-12-19T07:00:16.366Z,968.10
2017-12-19T07:01:16.372Z,968.12
2017-12-19T07:02:16.370Z,968.11
2017-12-19T07:03:16.372Z,968.12
2017-12-19T07:04:16.376Z,968.16
2017-12-19T07:05:16.378Z,968.16
2017-12-19T07:06:16.379Z,968.19
2017-12-19T07:07:16.383Z,968.24
2017-12-19T07:08:16.384Z,968.26
2017-12-19T07:09:16.385Z,968.37
2017-12-19T07:10:16.387Z,968.35
2017-12-19T07:11:16.391Z,968.29
2017-12-19T07:12:16.393Z,968.31
2017-12-19T07:13:16.395Z,968.30
2017-12-19T07:14:16.399Z,968.38
2017-12-19T07:15:16.400Z,968.38
2017-12-19T07:16:16.403Z,968.44
2017-12-19T07:17:16.414Z,968.45
2017-12-19T07:18:16.415Z,968.48
2017-12-19T07:19:16.411Z,968.51
2017-12-19T07:20:16.413Z,968.55
2017-12-19T07:21:16.415Z,968.45
2017-12-19T07:22:16.418Z,968.44
2017-12-19T07:23:16.421Z,968.45
2017-12-19T07:24:16.424Z,968.40
2017-12-19T07:25:16.425Z,968.41
2017-12-19T07:26:16.428Z,968.39
2017-12-19T07:27:16.430Z,968.37
2017-12-19T07:28:16.433Z,968.44
2017-12-19T07:29:16.451Z,968.52
2017-12-19T07:30:16.436Z,968.61
2017-12-19T07:31:16.441Z,968.65
2017-12-19T07:32:16.453Z,968.65
2017-12-19T07:33:16.445Z,968.67
2017-12-19T07:34:16.449Z,968.66
2017-12-19T07:35:16.451Z,968.60
2017-12-19T07:36:16.452Z,968.59
2017-12-19T07:37:16.453Z,968.65
2017-12-19T07:38:16.457Z,968.62
2017-12-19T07:39:16.460Z,968.68
2017-12-19T07:40:16.461Z,968.66
2017-12-19T07:41:16.466Z,968.64
2017-12-19T07:42:16.467Z,968.68
2017-12-19T07:43:16.469Z,968.70
2017-12-19T07:44:16.473Z,968.80
2017-12-19T07:45:16.474Z,968.85
2017-12-19T07:46:16.476Z,968.85
2017-12-19T07:47:16.481Z,968.81
2017-12-19T07:48:16.482Z,968.77
2017-12-19T07:49:16.484Z,968.73
2017-12-19T07:50:16.486Z,968.76
2017-12-19T07:51:16.488Z,968.72
2017-12-19T07:52:16.492Z,968.73
2017-12-19T07:53:16.492Z,968.81
2017-12-19T07:54:16.496Z,968.85
2017-12-19T07:55:16.498Z,968.98
2017-12-19T07:56:16.498Z,968.94
2017-12-19T07:57:16.503Z,968.92
2017-12-19T07:58:16.506Z,968.90
2017-12-19T07:59:16.508Z,968.93
2017-12-19T08:00:16.510Z,968.87
2017-12-19T08:01:16.515Z,968.84
2017-12-19T08:02:16.516Z,968.80
2017-12-19T08:03:16.516Z,968.80
2017-12-19T08:04:16.519Z,968.80
2017-12-19T08:05:16.520Z,968.76
2017-12-19T08:06:16.523Z,968.89
2017-12-19T08:07:16.525Z,968.81
2017-12-19T08:08:16.526Z,968.80
2017-12-19T08:09:16.528Z,968.78
2017-12-19T08:10:16.527Z,968.97
2017-12-19T08:11:16.532Z,969.02
2017-12-19T08:12:16.537Z,969.04
2017-12-19T08:13:16.537Z,969.09
2017-12-19T08:14:16.548Z,969.13
2017-12-19T08:15:16.542Z,969.13
2017-12-19T08:16:16.544Z,969.11
2017-12-19T08:17:16.547Z,969.04
2017-12-19T08:18:16.547Z,969.03
2017-12-19T08:19:16.550Z,969.04
2017-12-19T08:20:16.552Z,969.08
2017-12-19T08:21:16.554Z,969.14
2017-12-19T08:22:16.556Z,969.13
2017-12-19T08:23:16.559Z,969.15
2017-12-19T08:24:16.562Z,969.12
2017-12-19T08:25:16.562Z,969.17
2017-12-19T08:26:16.569Z,969.16
2017-12-19T08:27:16.569Z,969.16
2017-12-19T08:28:16.582Z,969.20
2017-12-19T08:29:16.570Z,969.16
2017-12-19T08:30:16.574Z,969.21
2017-12-19T08:31:16.576Z,969.16
2017-12-19T08:32:16.578Z,969.18
2017-12-19T08:33:16.580Z,969.24
2017-12-19T08:34:16.585Z,969.24
2017-12-19T08:35:16.586Z,969.24
2017-12-19T08:36:16.589Z,969.20
2017-12-19T08:37:16.589Z,969.23
2017-12-19T08:38:16.593Z,969.27
2017-12-19T08:39:16.594Z,969.30
2017-12-19T08:40:16.598Z,969.41
2017-12-19T08:41:16.600Z,969.39
2017-12-19T08:42:16.600Z,969.37
2017-12-19T08:43:16.605Z,969.27
2017-12-19T08:44:16.607Z,969.26
2017-12-19T08:45:16.607Z,969.18
2017-12-19T08:46:16.614Z,969.15
2017-12-19T08:47:16.610Z,969.18
2017-12-19T08:48:16.615Z,969.18
2017-12-19T08:49:16.625Z,969.20
2017-12-19T08:50:16.617Z,969.20
2017-12-19T08:51:16.618Z,969.19
2017-12-19T08:52:16.622Z,969.20
2017-12-19T08:53:16.623Z,969.24
2017-12-19T08:54:16.626Z,969.25
2017-12-19T08:55:16.629Z,969.32
2017-12-19T08:56:16.628Z,969.34
2017-12-19T08:57:16.629Z,969.38
2017-12-19T08:58:16.632Z,969.28
2017-12-19T08:59:16.636Z,969.27
2017-12-19T09:00:16.636Z,969.29
2017-12-19T09:01:16.637Z,969.32
2017-12-19T09:02:16.689Z,969.30
2017-12-19T09:03:16.641Z,969.32
2017-12-19T09:04:16.642Z,969.31
2017-12-19T09:05:16.640Z,969.34
2017-12-19T09:06:16.642Z,969.35
2017-12-19T09:07:16.646Z,969.41
2017-12-19T09:08:16.647Z,969.43
2017-12-19T09:09:16.668Z,969.42
2017-12-19T09:10:16.652Z,969.46
2017-12-19T09:11:16.655Z,969.43
2017-12-19T09:12:16.651Z,969.41
2017-12-19T09:13:16.653Z,969.44
2017-12-19T09:14:16.653Z,969.51
2017-12-19T09:15:16.655Z,969.48
2017-12-19T09:16:16.658Z,969.51
2017-12-19T09:17:16.655Z,969.52
2017-12-19T09:18:16.657Z,969.53
2017-12-19T09:19:16.660Z,969.60
2017-12-19T09:20:16.661Z,969.56
2017-12-19T09:21:16.674Z,969.63
2017-12-19T09:22:16.671Z,969.64
2017-12-19T09:23:16.664Z,969.62
2017-12-19T09:24:16.664Z,969.58
2017-12-19T09:25:16.666Z,969.63
2017-12-19T09:26:16.666Z,969.58
2017-12-19T09:27:16.668Z,969.56
2017-12-19T09:28:16.669Z,969.58
2017-12-19T09:29:16.670Z,969.56
2017-12-19T09:30:16.672Z,969.59
2017-12-19T09:31:16.674Z,969.60
2017-12-19T09:32:16.673Z,969.54
2017-12-19T09:33:16.685Z,969.60
2017-12-19T09:34:16.683Z,969.60
2017-12-19T09:35:16.677Z,969.65
2017-12-19T09:36:16.680Z,969.65
2017-12-19T09:37:16.680Z,969.69
2017-12-19T09:38:16.680Z,969.72
2017-12-19T09:39:16.682Z,969.72
2017-12-19T09:40:16.683Z,969.79
2017-12-19T09:41:16.684Z,969.83
2017-12-19T09:42:16.685Z,969.75
2017-12-19T09:43:16.687Z,969.72
2017-12-19T09:44:16.688Z,969.68
2017-12-19T09:45:16.687Z,969.67
2017-12-19T09:46:16.690Z,969.63
2017-12-19T09:47:16.692Z,969.73
2017-12-19T09:48:16.691Z,969.79
2017-12-19T09:49:16.692Z,969.84
2017-12-19T09:50:16.709Z,969.90
2017-12-19T09:51:16.695Z,969.89
2017-12-19T09:52:16.698Z,969.92
2017-12-19T09:53:16.700Z,969.89
2017-12-19T09:54:16.700Z,969.93
2017-12-19T09:55:16.699Z,969.88
2017-12-19T09:56:16.704Z,969.90
2017-12-19T09:57:16.706Z,969.85
2017-12-19T09:58:16.706Z,969.75
2017-12-19T09:59:16.708Z,969.71
2017-12-19T10:00:16.709Z,969.63
2017-12-19T10:01:16.709Z,969.16
2017-12-19T10:02:16.715Z,969.21
2017-12-19T10:03:16.718Z,969.18
2017-12-19T10:04:16.715Z,969.15
2017-12-19T10:05:16.715Z,969.12
2017-12-19T10:06:16.716Z,969.10
2017-12-19T10:07:16.719Z,969.06
2017-12-19T10:08:16.720Z,969.11
2017-12-19T10:09:16.723Z,969.15
2017-12-19T10:10:16.729Z,969.57
2017-12-19T10:11:16.724Z,969.56
2017-12-19T10:12:16.732Z,969.54
2017-12-19T10:13:16.730Z,969.57
2017-12-19T10:14:16.731Z,969.62
2017-12-19T10:15:16.789Z,969.65
2017-12-19T10:16:17.311Z,969.76
2017-12-19T10:17:16.739Z,969.84
2017-12-19T10:18:16.740Z,969.83
2017-12-19T10:19:16.745Z,969.83
2017-12-19T10:20:16.744Z,969.73
2017-12-19T10:21:16.743Z,969.74
2017-12-19T10:22:16.746Z,969.76
2017-12-19T10:23:16.751Z,969.78
2017-12-19T10:24:16.750Z,969.85
2017-12-19T10:25:16.763Z,969.90
2017-12-19T10:26:16.753Z,969.92
2017-12-19T10:27:16.753Z,969.90
2017-12-19T10:28:16.754Z,969.89
2017-12-19T10:29:16.754Z,969.90
2017-12-19T10:30:16.752Z,969.85
2017-12-19T10:31:16.758Z,969.87
2017-12-19T10:32:16.761Z,969.85
2017-12-19T10:33:16.758Z,969.85
2017-12-19T10:34:16.761Z,969.87
2017-12-19T10:35:16.759Z,969.85
2017-12-19T10:36:16.762Z,969.80
2017-12-19T10:37:16.761Z,969.80
2017-12-19T10:38:16.764Z,969.77
2017-12-19T10:39:16.763Z,969.73
2017-12-19T10:40:16.763Z,969.69
2017-12-19T10:41:16.765Z,969.62
2017-12-19T10:42:16.766Z,969.62
2017-12-19T10:43:16.767Z,969.56
2017-12-19T10:44:16.770Z,969.57
2017-12-19T10:45:16.770Z,969.51
2017-12-19T10:46:16.773Z,969.51
2017-12-19T10:47:16.826Z,969.51
2017-12-19T10:48:16.774Z,969.49
2017-12-19T10:49:16.773Z,969.43
2017-12-19T10:50:16.775Z,969.33
2017-12-19T10:51:16.776Z,969.28
2017-12-19T10:52:16.776Z,969.26
2017-12-19T10:53:16.779Z,969.15
2017-12-19T10:54:16.777Z,969.21
2017-12-19T10:55:16.780Z,969.24
2017-12-19T10:56:16.783Z,969.30
2017-12-19T10:57:16.790Z,969.40
2017-12-19T10:58:16.783Z,969.37
2017-12-19T10:59:16.785Z,969.31
2017-12-19T11:00:16.789Z,969.37
2017-12-19T11:01:16.788Z,969.40
2017-12-19T11:02:16.790Z,969.48
2017-12-19T11:03:16.790Z,969.48
2017-12-19T11:04:16.792Z,969.49
2017-12-19T11:05:16.790Z,969.51
2017-12-19T11:06:16.794Z,969.47
2017-12-19T11:07:16.796Z,969.47
2017-12-19T11:08:16.795Z,969.46
2017-12-19T11:09:16.797Z,969.50
2017-12-19T11:10:16.798Z,969.52
2017-12-19T11:11:16.800Z,969.53
2017-12-19T11:12:16.802Z,969.62
2017-12-19T11:13:16.810Z,969.61
2017-12-19T11:14:16.802Z,969.59
2017-12-19T11:15:16.807Z,969.48
2017-12-19T11:16:16.808Z,969.47
2017-12-19T11:17:16.806Z,969.41
2017-12-19T11:18:16.807Z,969.32
2017-12-19T11:19:16.822Z,969.33
2017-12-19T11:20:16.809Z,969.22
2017-12-19T11:21:16.810Z,969.24
2017-12-19T11:22:16.811Z,969.29
2017-12-19T11:23:16.812Z,969.34
2017-12-19T11:24:16.813Z,969.44
2017-12-19T11:25:16.812Z,969.46
2017-12-19T11:26:16.814Z,969.46
2017-12-19T11:27:16.815Z,969.46
2017-12-19T11:28:16.818Z,969.42
2017-12-19T11:29:16.821Z,969.46
2017-12-19T11:30:16.819Z,969.44
2017-12-19T11:31:16.823Z,969.51
2017-12-19T11:32:16.821Z,969.53
2017-12-19T11:33:16.823Z,969.50
2017-12-19T11:34:16.824Z,969.49
2017-12-19T11:35:16.823Z,969.46
2017-12-19T11:36:16.824Z,969.43
2017-12-19T11:37:16.825Z,969.37
2017-12-19T11:38:16.826Z,969.39
2017-12-19T11:39:16.827Z,969.36
2017-12-19T11:40:16.827Z,969.33
2017-12-19T11:41:16.829Z,969.39
2017-12-19T11:42:16.830Z,969.28
2017-12-19T11:43:16.832Z,969.22
2017-12-19T11:44:16.830Z,968.90
2017-12-19T11:45:16.831Z,968.86
2017-12-19T11:46:16.840Z,968.84
2017-12-19T11:47:16.837Z,968.83
2017-12-19T11:48:16.839Z,968.76
2017-12-19T11:49:16.842Z,968.62
2017-12-19T11:50:16.843Z,968.55
2017-12-19T11:51:16.846Z,968.51
2017-12-19T11:52:16.849Z,968.50
2017-12-19T11:53:16.850Z,968.53
2017-12-19T11:54:16.872Z,968.56
2017-12-19T11:55:16.854Z,968.60
2017-12-19T11:56:16.858Z,968.68
2017-12-19T11:57:16.861Z,968.68
2017-12-19T11:58:16.866Z,968.69
2017-12-19T11:59:16.866Z,968.70
2017-12-19T12:00:16.876Z,968.65
2017-12-19T12:01:16.873Z,968.71
2017-12-19T12:02:16.876Z,968.69
2017-12-19T12:03:16.878Z,968.75
2017-12-19T12:04:16.881Z,968.76
2017-12-19T12:05:16.881Z,968.80
2017-12-19T12:06:16.887Z,968.80
2017-12-19T12:07:16.889Z,968.80
2017-12-19T12:08:16.891Z,968.79
2017-12-19T12:09:16.892Z,968.79
2017-12-19T12:10:16.896Z,968.78
2017-12-19T12:11:16.900Z,968.79
2017-12-19T12:12:16.904Z,968.84
2017-12-19T12:13:16.904Z,968.84
2017-12-19T12:14:16.915Z,968.90
2017-12-19T12:15:16.915Z,968.88
2017-12-19T12:16:16.918Z,968.90
2017-12-19T12:17:16.918Z,968.90
2017-12-19T12:18:16.959Z,968.93
2017-12-19T12:19:16.926Z,968.95
2017-12-19T12:20:16.927Z,968.98
2017-12-19T12:21:16.928Z,968.99
2017-12-19T12:22:16.932Z,968.99
2017-12-19T12:23:16.936Z,969.33
2017-12-19T12:24:16.938Z,968.92
2017-12-19T12:25:16.941Z,969.37
2017-12-19T12:26:16.945Z,969.37
2017-12-19T12:27:16.947Z,969.39
2017-12-19T12:28:16.949Z,969.41